createdAt,value
2023-10-01T00:01:04.056Z,62.10
2023-10-01T00:05:58.144Z,61.50
2023-10-01T00:08:25.034Z,62.10
2023-10-01T00:10:51.815Z,62.20
2023-10-01T00:13:21.556Z,62.10
2023-10-01T00:15:51.085Z,62.20
2023-10-01T00:18:17.997Z,62.20
2023-10-01T00:20:44.758Z,62.20
2023-10-01T00:23:12.436Z,61.70
2023-10-01T00:25:40.067Z,62.20
2023-10-01T00:28:08.240Z,62.30
2023-10-01T00:30:36.401Z,61.80
2023-10-01T00:33:12.129Z,62.30
2023-10-01T00:35:41.392Z,62.40
2023-10-01T00:38:09.758Z,61.80
2023-10-01T00:40:37.169Z,62.20
2023-10-01T00:43:05.518Z,62.30
2023-10-01T00:45:33.210Z,61.60
2023-10-01T00:48:29.228Z,62.30
2023-10-01T00:50:58.372Z,62.10
2023-10-01T00:53:25.576Z,62.00
2023-10-01T00:55:53.611Z,62.40
2023-10-01T00:58:20.506Z,62.50
2023-10-01T01:00:50.332Z,62.50
2023-10-01T01:03:20.813Z,62.60
2023-10-01T01:06:02.548Z,62.60
2023-10-01T01:08:34.847Z,62.60
2023-10-01T01:11:03.010Z,62.60
2023-10-01T01:13:34.909Z,62.70
2023-10-01T01:16:03.558Z,62.70
2023-10-01T01:18:35.203Z,62.70
2023-10-01T01:21:10.972Z,62.80
2023-10-01T01:23:38.212Z,62.80
2023-10-01T01:26:05.149Z,63.00
2023-10-01T01:28:33.125Z,63.00
2023-10-01T01:31:05.960Z,62.70
2023-10-01T01:33:41.197Z,63.00
2023-10-01T01:36:18.345Z,62.40
2023-10-01T01:39:29.724Z,63.00
2023-10-01T01:41:56.517Z,63.30
2023-10-01T01:44:24.389Z,63.00
2023-10-01T01:46:59.576Z,62.40
2023-10-01T01:49:26.570Z,62.50
2023-10-01T01:52:00.788Z,62.60
2023-10-01T01:54:32.517Z,62.40
2023-10-01T01:56:59.638Z,62.90
2023-10-01T01:59:30.753Z,62.90
2023-10-01T02:01:58.309Z,62.30
2023-10-01T02:04:25.664Z,62.90
2023-10-01T02:09:21.330Z,62.20
2023-10-01T02:11:51.466Z,62.90
2023-10-01T02:14:35.344Z,62.90
2023-10-01T02:17:16.626Z,62.90
2023-10-01T02:19:50.924Z,62.90
2023-10-01T02:22:18.605Z,62.90
2023-10-01T02:24:59.280Z,62.80
2023-10-01T02:27:29.988Z,62.90
2023-10-01T02:30:13.013Z,62.80
2023-10-01T02:35:37.577Z,62.20
2023-10-01T02:38:08.846Z,62.90
2023-10-01T02:40:39.631Z,62.90
2023-10-01T02:43:10.377Z,62.90
2023-10-01T02:45:42.622Z,62.30
2023-10-01T02:48:17.962Z,62.80
2023-10-01T02:50:53.071Z,62.40
2023-10-01T02:53:21.723Z,62.90
2023-10-01T02:55:53.077Z,62.90
2023-10-01T03:00:57.273Z,62.30
2023-10-01T03:03:34.763Z,63.00
2023-10-01T03:06:09.893Z,62.40
2023-10-01T03:09:00.625Z,62.50
2023-10-01T03:11:35.996Z,63.00
2023-10-01T03:14:09.992Z,63.00
2023-10-01T03:16:54.113Z,63.00
2023-10-01T03:19:27.215Z,62.50
2023-10-01T03:22:04.884Z,63.10
2023-10-01T03:24:41.377Z,63.10
2023-10-01T03:30:21.436Z,62.40
2023-10-01T03:32:48.426Z,63.10
2023-10-01T03:35:15.207Z,63.00
2023-10-01T03:37:44.605Z,63.10
2023-10-01T03:40:23.250Z,63.20
2023-10-01T03:42:53.757Z,63.30
2023-10-01T03:45:22.237Z,62.60
2023-10-01T03:47:58.495Z,63.40
2023-10-01T03:50:26.897Z,62.80
2023-10-01T03:55:29.447Z,62.70
2023-10-01T03:58:02.281Z,63.30
2023-10-01T04:00:41.174Z,63.40
2023-10-01T04:03:15.223Z,63.10
2023-10-01T04:05:47.788Z,63.30
2023-10-01T04:08:15.526Z,63.30
2023-10-01T04:10:44.014Z,63.40
2023-10-01T04:13:29.626Z,63.40
2023-10-01T04:15:57.221Z,63.40
2023-10-01T04:18:26.027Z,63.50
2023-10-01T04:21:00.219Z,63.50
2023-10-01T04:23:33.419Z,63.60
2023-10-01T04:26:14.909Z,63.60
2023-10-01T04:28:57.490Z,63.60
2023-10-01T04:31:43.868Z,63.60
2023-10-01T04:34:13.357Z,63.70
2023-10-01T04:36:45.588Z,63.70
2023-10-01T04:39:12.632Z,63.70
2023-10-01T04:41:40.786Z,63.70
2023-10-01T04:44:07.877Z,63.70
2023-10-01T04:46:41.729Z,63.80
2023-10-01T04:49:15.617Z,63.80
2023-10-01T04:51:48.271Z,63.40
2023-10-01T04:54:19.227Z,63.80
2023-10-01T04:56:50.122Z,63.80
2023-10-01T04:59:17.826Z,63.80
2023-10-01T05:01:44.852Z,64.00
2023-10-01T05:04:13.045Z,63.90
2023-10-01T05:07:02.010Z,63.90
2023-10-01T05:12:04.756Z,63.30
2023-10-01T05:19:41.333Z,63.40
2023-10-01T05:22:10.150Z,64.00
2023-10-01T05:24:37.315Z,63.50
2023-10-01T05:27:19.713Z,64.00
2023-10-01T05:29:47.316Z,64.00
2023-10-01T05:32:14.701Z,63.50
2023-10-01T05:34:47.256Z,64.10
2023-10-01T05:37:26.012Z,64.00
2023-10-01T05:42:29.341Z,63.40
2023-10-01T05:44:57.628Z,64.00
2023-10-01T05:47:24.499Z,64.00
2023-10-01T05:49:54.605Z,64.00
2023-10-01T05:52:22.405Z,63.50
2023-10-01T05:54:55.051Z,64.10
2023-10-01T05:57:22.459Z,64.00
2023-10-01T06:00:01.294Z,63.90
2023-10-01T06:02:43.162Z,64.00
2023-10-01T06:05:26.324Z,63.20
2023-10-01T06:07:55.992Z,63.90
2023-10-01T06:10:36.759Z,63.20
2023-10-01T06:13:08.355Z,63.70
2023-10-01T06:15:35.297Z,63.70
2023-10-01T06:18:06.317Z,63.60
2023-10-01T06:20:34.589Z,63.60
2023-10-01T06:23:01.428Z,63.50
2023-10-01T06:25:44.242Z,63.40
2023-10-01T06:28:11.662Z,63.50
2023-10-01T06:30:42.072Z,63.40
2023-10-01T06:33:10.797Z,63.30
2023-10-01T06:35:57.588Z,63.30
2023-10-01T06:38:25.896Z,63.00
2023-10-01T06:40:52.801Z,63.00
2023-10-01T06:43:21.514Z,62.80
2023-10-01T06:45:50.763Z,62.80
2023-10-01T06:48:25.261Z,62.70
2023-10-01T06:50:52.384Z,61.80
2023-10-01T06:53:19.174Z,62.60
2023-10-01T06:55:48.302Z,61.90
2023-10-01T06:58:15.144Z,62.50
2023-10-01T07:00:42.814Z,62.50
2023-10-01T07:03:20.111Z,62.50
2023-10-01T07:05:48.534Z,62.50
2023-10-01T07:08:17.986Z,62.30
2023-10-01T07:10:52.880Z,62.20
2023-10-01T07:13:19.822Z,61.90
2023-10-01T07:15:49.252Z,61.80
2023-10-01T07:18:21.471Z,61.70
2023-10-01T07:20:51.170Z,61.70
2023-10-01T07:23:22.797Z,61.00
2023-10-01T07:25:50.541Z,61.60
2023-10-01T07:28:19.783Z,61.40
2023-10-01T07:33:21.947Z,60.70
2023-10-01T07:36:02.827Z,61.30
2023-10-01T07:38:48.013Z,61.20
2023-10-01T07:41:17.845Z,61.10
2023-10-01T07:43:44.939Z,61.00
2023-10-01T07:46:15.829Z,61.00
2023-10-01T07:48:48.437Z,61.00
2023-10-01T07:51:27.284Z,60.00
2023-10-01T07:53:58.152Z,60.90
2023-10-01T07:56:25.087Z,60.80
2023-10-01T07:58:58.756Z,60.80
2023-10-01T08:01:38.242Z,60.90
2023-10-01T08:04:31.494Z,60.80
2023-10-01T08:07:06.709Z,60.80
2023-10-01T08:09:34.747Z,60.80
2023-10-01T08:12:13.908Z,60.80
2023-10-01T08:14:42.823Z,60.70
2023-10-01T08:17:09.981Z,60.60
2023-10-01T08:19:45.374Z,60.40
2023-10-01T08:22:15.999Z,60.40
2023-10-01T08:24:47.277Z,60.10
2023-10-01T08:27:15.202Z,60.00
2023-10-01T08:30:00.858Z,59.80
2023-10-01T08:32:39.612Z,59.60
2023-10-01T08:35:08.060Z,58.80
2023-10-01T08:37:50.400Z,59.80
2023-10-01T08:40:18.535Z,59.10
2023-10-01T08:42:46.271Z,59.00
2023-10-01T08:45:18.314Z,59.00
2023-10-01T08:47:49.053Z,59.00
2023-10-01T08:50:29.282Z,58.10
2023-10-01T08:53:10.754Z,58.70
2023-10-01T08:55:48.955Z,58.50
2023-10-01T08:58:20.929Z,58.50
2023-10-01T09:00:58.077Z,58.40
2023-10-01T09:03:30.818Z,58.10
2023-10-01T09:06:07.089Z,58.10
2023-10-01T09:08:45.136Z,58.00
2023-10-01T09:11:15.303Z,57.90
2023-10-01T09:13:59.929Z,57.70
2023-10-01T09:16:34.579Z,57.40
2023-10-01T09:19:05.490Z,57.40
2023-10-01T09:21:42.132Z,57.60
2023-10-01T09:24:40.899Z,57.60
2023-10-01T09:27:22.898Z,57.20
2023-10-01T09:29:58.564Z,57.40
2023-10-01T09:32:52.184Z,57.40
2023-10-01T09:35:32.513Z,57.00
2023-10-01T09:38:19.963Z,57.40
2023-10-01T09:40:48.721Z,56.90
2023-10-01T09:43:20.837Z,57.10
2023-10-01T09:45:50.818Z,57.10
2023-10-01T09:48:39.043Z,57.00
2023-10-01T09:51:17.230Z,56.00
2023-10-01T09:53:56.808Z,57.00
2023-10-01T09:56:30.737Z,56.70
2023-10-01T09:59:01.038Z,56.90
2023-10-01T10:01:32.746Z,56.60
2023-10-01T10:04:02.685Z,56.70
2023-10-01T10:06:30.709Z,56.70
2023-10-01T10:09:07.691Z,56.60
2023-10-01T10:11:46.610Z,56.50
2023-10-01T10:14:26.994Z,56.30
2023-10-01T10:17:19.627Z,55.50
2023-10-01T10:20:39.665Z,55.60
2023-10-01T10:23:18.979Z,55.00
2023-10-01T10:25:46.927Z,55.20
2023-10-01T10:28:31.153Z,55.50
2023-10-01T10:31:34.194Z,55.00
2023-10-01T10:34:27.595Z,54.50
2023-10-01T10:36:56.082Z,53.30
2023-10-01T10:40:03.274Z,54.50
2023-10-01T10:42:30.578Z,53.90
2023-10-01T10:45:22.565Z,54.70
2023-10-01T10:48:11.007Z,54.30
2023-10-01T10:51:07.924Z,54.00
2023-10-01T10:53:39.360Z,54.70
2023-10-01T10:56:12.146Z,55.00
2023-10-01T10:58:44.891Z,54.90
2023-10-01T11:01:20.050Z,54.40
2023-10-01T11:03:57.046Z,54.60
2023-10-01T11:06:24.728Z,54.40
2023-10-01T11:08:54.006Z,54.70
2023-10-01T11:11:45.144Z,54.60
2023-10-01T11:14:20.131Z,54.40
2023-10-01T11:16:50.042Z,54.70
2023-10-01T11:19:29.386Z,54.50
2023-10-01T11:22:02.939Z,54.40
2023-10-01T11:24:43.188Z,53.70
2023-10-01T11:27:26.403Z,53.50
2023-10-01T11:30:20.481Z,53.30
2023-10-01T11:33:01.571Z,53.80
2023-10-01T11:35:35.960Z,54.00
2023-10-01T11:38:20.971Z,54.20
2023-10-01T11:41:10.302Z,53.90
2023-10-01T11:44:01.698Z,54.20
2023-10-01T11:46:57.973Z,54.00
2023-10-01T11:49:38.807Z,53.50
2023-10-01T11:52:23.154Z,54.00
2023-10-01T11:54:55.904Z,53.30
2023-10-01T11:57:25.076Z,53.70
2023-10-01T12:00:02.695Z,53.10
2023-10-01T12:02:44.746Z,53.10
2023-10-01T12:05:14.745Z,52.90
2023-10-01T12:07:42.156Z,53.10
2023-10-01T12:10:30.948Z,51.70
2023-10-01T12:12:58.673Z,52.20
2023-10-01T12:15:43.975Z,52.00
2023-10-01T12:18:16.929Z,51.00
2023-10-01T12:20:52.254Z,51.50
2023-10-01T12:23:23.831Z,51.60
2023-10-01T12:25:55.051Z,51.80
2023-10-01T12:28:29.102Z,50.90
2023-10-01T12:30:58.924Z,51.90
2023-10-01T12:33:44.845Z,52.50
2023-10-01T12:36:38.639Z,51.80
2023-10-01T12:39:11.515Z,52.00
2023-10-01T12:41:57.729Z,52.00
2023-10-01T12:44:31.545Z,51.70
2023-10-01T12:47:03.249Z,52.00
2023-10-01T12:49:34.374Z,51.30
2023-10-01T12:52:01.593Z,52.40
2023-10-01T12:54:28.891Z,51.50
2023-10-01T12:57:19.394Z,51.70
2023-10-01T12:59:50.626Z,51.70
2023-10-01T13:02:24.953Z,50.50
2023-10-01T13:05:14.526Z,51.70
2023-10-01T13:07:58.490Z,51.60
2023-10-01T13:10:35.818Z,51.60
2023-10-01T13:13:08.524Z,51.60
2023-10-01T13:15:39.403Z,51.30
2023-10-01T13:18:16.024Z,51.80
2023-10-01T13:21:00.486Z,51.70
2023-10-01T13:23:32.997Z,50.80
2023-10-01T13:26:20.082Z,51.20
2023-10-01T13:28:57.827Z,51.10
2023-10-01T13:31:30.761Z,50.30
2023-10-01T13:34:10.622Z,51.30
2023-10-01T13:36:52.310Z,51.10
2023-10-01T13:39:26.044Z,51.10
2023-10-01T13:42:15.736Z,51.00
2023-10-01T13:45:01.118Z,51.00
2023-10-01T13:47:48.290Z,51.10
2023-10-01T13:50:34.310Z,50.70
2023-10-01T13:53:39.826Z,51.30
2023-10-01T13:56:25.182Z,51.30
2023-10-01T13:59:10.786Z,51.40
2023-10-01T14:04:42.446Z,50.70
2023-10-01T14:07:28.192Z,51.10
2023-10-01T14:09:55.735Z,50.90
2023-10-01T14:12:42.405Z,52.80
2023-10-01T14:15:27.893Z,50.90
2023-10-01T14:17:56.656Z,50.60
2023-10-01T14:20:43.977Z,50.60
2023-10-01T14:23:28.043Z,50.40
2023-10-01T14:26:00.050Z,50.90
2023-10-01T14:28:28.901Z,51.00
2023-10-01T14:31:10.040Z,50.80
2023-10-01T14:33:40.601Z,50.80
2023-10-01T14:36:12.252Z,49.50
2023-10-01T14:38:39.403Z,50.60
2023-10-01T14:41:11.830Z,50.10
2023-10-01T14:43:50.224Z,50.60
2023-10-01T14:46:18.859Z,50.60
2023-10-01T14:48:48.897Z,50.60
2023-10-01T14:51:18.138Z,49.60
2023-10-01T14:53:45.164Z,50.70
2023-10-01T14:56:12.638Z,50.70
2023-10-01T14:58:40.696Z,50.80
2023-10-01T15:01:10.005Z,50.70
2023-10-01T15:03:37.277Z,50.80
2023-10-01T15:06:08.637Z,50.90
2023-10-01T15:08:37.823Z,50.70
2023-10-01T15:11:12.895Z,50.70
2023-10-01T15:13:46.474Z,50.60
2023-10-01T15:16:29.116Z,50.20
2023-10-01T15:19:04.656Z,50.70
2023-10-01T15:21:32.776Z,50.90
2023-10-01T15:26:31.984Z,50.20
2023-10-01T15:28:59.395Z,50.80
2023-10-01T15:31:33.318Z,50.80
2023-10-01T15:34:22.799Z,50.90
2023-10-01T15:36:50.998Z,51.00
2023-10-01T15:39:29.060Z,51.60
2023-10-01T15:42:10.382Z,52.50
2023-10-01T15:44:45.008Z,53.10
2023-10-01T15:47:14.155Z,54.00
2023-10-01T15:49:41.074Z,54.50
2023-10-01T15:52:13.081Z,54.40
2023-10-01T15:54:40.124Z,55.00
2023-10-01T15:57:06.933Z,55.10
2023-10-01T15:59:33.686Z,56.10
2023-10-01T16:02:07.751Z,55.90
2023-10-01T16:04:46.146Z,56.30
2023-10-01T16:07:13.546Z,57.40
2023-10-01T16:09:40.817Z,56.90
2023-10-01T16:12:15.269Z,57.80
2023-10-01T16:14:56.999Z,59.40
2023-10-01T16:17:33.028Z,58.80
2023-10-01T16:20:00.414Z,59.20
2023-10-01T16:22:29.034Z,59.60
2023-10-01T16:24:59.259Z,59.40
2023-10-01T16:27:35.504Z,59.10
2023-10-01T16:30:23.314Z,61.80
2023-10-01T16:32:53.139Z,61.80
2023-10-01T16:35:29.736Z,61.80
2023-10-01T16:38:04.717Z,62.20
2023-10-01T16:40:32.132Z,62.20
2023-10-01T16:43:01.055Z,62.50
2023-10-01T16:45:30.558Z,62.70
2023-10-01T16:48:05.497Z,63.20
2023-10-01T16:50:58.014Z,65.00
2023-10-01T16:53:31.774Z,64.20
2023-10-01T16:56:23.027Z,64.30
2023-10-01T16:58:56.450Z,64.40
2023-10-01T17:01:28.622Z,64.40
2023-10-01T17:04:27.970Z,65.40
2023-10-01T17:06:57.208Z,66.50
2023-10-01T17:09:34.298Z,64.40
2023-10-01T17:12:03.207Z,66.50
2023-10-01T17:14:30.016Z,64.70
2023-10-01T17:17:01.751Z,66.20
2023-10-01T17:19:33.877Z,65.40
2023-10-01T17:22:10.767Z,65.60
2023-10-01T17:24:45.199Z,66.40
2023-10-01T17:27:17.834Z,66.00
2023-10-01T17:29:47.220Z,66.20
2023-10-01T17:32:16.596Z,66.30
2023-10-01T17:34:44.914Z,66.50
2023-10-01T17:37:24.601Z,66.50
2023-10-01T17:39:57.465Z,66.60
2023-10-01T17:42:27.898Z,66.40
2023-10-01T17:44:57.192Z,66.90
2023-10-01T17:47:24.430Z,67.00
2023-10-01T17:49:56.372Z,68.10
2023-10-01T17:52:33.112Z,67.00
2023-10-01T17:55:03.402Z,67.60
2023-10-01T17:57:44.155Z,68.40
2023-10-01T18:00:13.629Z,67.70
2023-10-01T18:02:42.542Z,67.70
2023-10-01T18:05:20.451Z,67.90
2023-10-01T18:07:53.650Z,68.40
2023-10-01T18:10:45.701Z,68.60
2023-10-01T18:13:23.112Z,69.70
2023-10-01T18:15:56.214Z,68.40
2023-10-01T18:18:25.599Z,69.30
2023-10-01T18:20:55.939Z,69.20
2023-10-01T18:23:24.373Z,68.60
2023-10-01T18:25:57.291Z,68.70
2023-10-01T18:28:30.660Z,69.00
2023-10-01T18:30:59.920Z,69.00
2023-10-01T18:33:37.057Z,69.00
2023-10-01T18:36:19.379Z,69.20
2023-10-01T18:38:47.579Z,69.20
2023-10-01T18:41:21.320Z,69.40
2023-10-01T18:43:49.410Z,69.30
2023-10-01T18:46:16.653Z,70.60
2023-10-01T18:48:43.452Z,69.00
2023-10-01T18:51:13.020Z,69.30
2023-10-01T18:53:42.497Z,70.60
2023-10-01T18:56:10.901Z,69.80
2023-10-01T18:58:39.406Z,69.90
2023-10-01T19:01:07.341Z,70.20
2023-10-01T19:03:35.466Z,70.30
2023-10-01T19:06:03.678Z,70.30
2023-10-01T19:08:33.197Z,70.50
2023-10-01T19:11:02.596Z,70.80
2023-10-01T19:13:31.932Z,70.90
2023-10-01T19:16:01.194Z,70.90
2023-10-01T19:18:29.191Z,71.10
2023-10-01T19:20:56.899Z,71.00
2023-10-01T19:23:35.436Z,71.10
2023-10-01T19:26:06.583Z,71.20
2023-10-01T19:28:35.552Z,71.30
2023-10-01T19:31:11.958Z,71.30
2023-10-01T19:33:41.323Z,71.30
2023-10-01T19:36:14.780Z,71.40
2023-10-01T19:38:47.894Z,71.50
2023-10-01T19:41:19.166Z,72.00
2023-10-01T19:43:50.124Z,71.60
2023-10-01T19:46:17.121Z,72.60
2023-10-01T19:48:51.857Z,71.40
2023-10-01T19:51:26.093Z,72.70
2023-10-01T19:54:06.240Z,72.10
2023-10-01T19:56:33.137Z,73.10
2023-10-01T19:59:09.075Z,73.30
2023-10-01T20:01:40.786Z,72.70
2023-10-01T20:04:11.249Z,72.00
2023-10-01T20:09:33.825Z,72.10
2023-10-01T20:12:00.962Z,72.90
2023-10-01T20:14:35.840Z,72.90
2023-10-01T20:17:03.833Z,74.00
2023-10-01T20:19:32.068Z,73.30
2023-10-01T20:22:01.540Z,73.30
2023-10-01T20:24:28.765Z,74.10
2023-10-01T20:26:56.695Z,73.40
2023-10-01T20:29:26.844Z,73.60
2023-10-01T20:31:53.714Z,73.60
2023-10-01T20:34:21.614Z,73.60
2023-10-01T20:36:53.530Z,73.70
2023-10-01T20:39:39.518Z,73.70
2023-10-01T20:42:17.419Z,73.70
2023-10-01T20:44:53.589Z,73.70
2023-10-01T20:47:23.597Z,74.30
2023-10-01T20:49:53.198Z,74.60
2023-10-01T20:52:35.584Z,73.80
2023-10-01T20:55:16.339Z,73.90
2023-10-01T20:57:44.417Z,73.70
2023-10-01T21:00:23.922Z,73.10
2023-10-01T21:05:29.375Z,73.00
2023-10-01T21:08:13.859Z,74.10
2023-10-01T21:10:45.618Z,74.00
2023-10-01T21:13:28.058Z,73.60
2023-10-01T21:16:04.329Z,74.20
2023-10-01T21:18:35.050Z,74.00
2023-10-01T21:21:02.104Z,73.80
2023-10-01T21:23:28.939Z,73.40
2023-10-01T21:25:55.821Z,74.10
2023-10-01T21:28:22.600Z,73.50
2023-10-01T21:30:49.385Z,73.50
2023-10-01T21:33:17.602Z,73.60
2023-10-01T21:35:45.324Z,73.60
2023-10-01T21:38:21.462Z,73.60
2023-10-01T21:40:52.995Z,74.20
2023-10-01T21:43:26.060Z,74.10
2023-10-01T21:46:00.254Z,73.60
2023-10-01T21:48:28.221Z,73.50
2023-10-01T21:50:59.673Z,73.00
2023-10-01T21:53:40.796Z,73.30
2023-10-01T21:56:11.417Z,73.30
2023-10-01T21:58:57.418Z,73.10
2023-10-01T22:01:45.480Z,73.40
2023-10-01T22:04:16.682Z,73.00
2023-10-01T22:06:56.595Z,73.10
2023-10-01T22:09:25.248Z,73.20
2023-10-01T22:11:57.515Z,73.00
2023-10-01T22:14:38.517Z,73.00
2023-10-01T22:17:07.751Z,72.90
2023-10-01T22:19:42.748Z,72.90
2023-10-01T22:22:09.887Z,73.30
2023-10-01T22:24:38.718Z,72.90
2023-10-01T22:27:13.179Z,73.60
2023-10-01T22:29:46.755Z,73.20
2023-10-01T22:32:13.644Z,72.80
2023-10-01T22:34:57.554Z,72.60
2023-10-01T22:37:29.676Z,72.00
2023-10-01T22:39:57.195Z,72.80
2023-10-01T22:42:24.987Z,72.70
2023-10-01T22:45:08.243Z,72.70
2023-10-01T22:47:38.532Z,72.90
2023-10-01T22:50:13.697Z,72.20
2023-10-01T22:52:42.744Z,72.20
2023-10-01T22:55:10.894Z,71.50
2023-10-01T22:57:47.584Z,72.20
2023-10-01T23:00:22.542Z,71.50
2023-10-01T23:02:53.578Z,72.20
2023-10-01T23:05:23.614Z,72.20
2023-10-01T23:07:52.551Z,71.40
2023-10-01T23:10:25.801Z,72.10
2023-10-01T23:13:12.305Z,72.10
2023-10-01T23:15:49.323Z,72.20
2023-10-01T23:18:36.268Z,72.40
2023-10-01T23:21:08.432Z,72.20
2023-10-01T23:23:43.612Z,72.10
2023-10-01T23:26:20.313Z,72.20
2023-10-01T23:29:07.255Z,71.60
2023-10-01T23:31:48.965Z,72.30
2023-10-01T23:34:22.757Z,72.50
2023-10-01T23:36:51.758Z,72.40
2023-10-01T23:39:38.167Z,72.10
2023-10-01T23:42:06.344Z,72.40
2023-10-01T23:44:51.809Z,72.40
2023-10-01T23:47:30.117Z,72.40
2023-10-01T23:50:17.573Z,71.80
2023-10-01T23:52:45.539Z,72.50
2023-10-01T23:55:33.387Z,72.50
2023-10-01T23:58:20.461Z,72.10
